Time;durP1;ratioP1;P1;durP2;ratioP2;P2;SDS_P1;SDS_P2;PMS_P1;PMS_P2;Temp;Humidity;BMP_temperature;BMP_pressure;BME280_temperature;BME280_humidity;BME280_pressure;Samples;Min_cycle;Max_cycle;Signal;HPM_P1;HPM_P2
2022/10/12 00:00:16;;;;;;;;;;;435.40;2355.20;;;;;;5093017;28;20010;-58
2022/10/12 00:02:42;;;;;;;;;;;435.40;2355.20;;;;;;5092410;28;19924;-58
2022/10/12 00:05:08;;;;;;;;;;;435.40;2355.20;;;;;;5092853;28;19912;-59
2022/10/12 00:07:33;;;;;;;;;;;435.50;2355.20;;;;;;5092240;28;19943;-58
2022/10/12 00:09:59;;;;;;;;;;;435.40;2355.20;;;;;;5092508;28;20688;-58
2022/10/12 00:12:24;;;;;;;;;;;435.40;2355.20;;;;;;5092291;28;20323;-58
2022/10/12 00:14:50;;;;;;;;;;;435.30;2355.20;;;;;;5092499;28;20003;-74
2022/10/12 00:17:15;;;;;;;;;;;435.30;2355.20;;;;;;5092576;28;19915;-58
2022/10/12 00:19:41;;;;;;;;;;;435.30;2355.20;;;;;;5092260;28;19917;-59
2022/10/12 00:22:06;;;;;;;;;;;435.30;2355.20;;;;;;5092676;28;19909;-61
2022/10/12 00:24:32;;;;;;;;;;;435.30;2355.20;;;;;;5091244;28;20010;-59
2022/10/12 00:26:58;;;;;;;;;;;435.30;2355.20;;;;;;5092174;28;19916;-62
2022/10/12 00:29:23;;;;;;;;;;;410.50;2355.20;;;;;;5091948;28;19996;-65
2022/10/12 00:31:49;;;;;;;;;;;435.20;2355.20;;;;;;5092321;28;19961;-85
2022/10/12 00:34:14;;;;;;;;;;;410.50;2355.20;;;;;;5091843;28;20369;-83
2022/10/12 00:36:40;;;;;;;;;;;410.50;2355.20;;;;;;5091945;28;19912;-59
2022/10/12 00:39:07;;;;;;;;;;;410.50;2355.20;;;;;;5091989;28;19922;-82
2022/10/12 00:41:34;;;;;;;;;;;410.50;2355.20;;;;;;5091829;28;20289;-60
2022/10/12 00:44:00;;;;;;;;;;;410.50;2355.20;;;;;;5091720;28;19919;-72
2022/10/12 00:46:31;;;;;;;;;;;410.40;2355.20;;;;;;5092075;28;20002;-59
2022/10/12 00:49:11;;;;;;;;;;;410.40;2355.20;;;;;;5091958;28;19973;-59
2022/10/12 00:51:38;;;;;;;;;;;410.40;2355.20;;;;;;5091810;28;19908;-59
2022/10/12 00:54:05;;;;;;;;;;;410.40;2355.20;;;;;;5091272;28;20330;-59
2022/10/12 00:56:32;;;;;;;;;;;410.30;2355.20;;;;;;5091415;28;19915;-80
2022/10/12 00:58:59;;;;;;;;;;;410.30;2355.20;;;;;;5091423;28;19920;-59
2022/10/12 01:01:25;;;;;;;;;;;410.30;2355.20;;;;;;5091485;28;19915;-58
2022/10/12 01:03:51;;;;;;;;;;;410.30;2355.20;;;;;;5091084;28;20281;-59
2022/10/12 01:06:17;;;;;;;;;;;410.40;2355.20;;;;;;5091653;28;20003;-58
2022/10/12 01:08:42;;;;;;;;;;;410.40;2355.20;;;;;;5090993;28;20281;-58
2022/10/12 01:11:08;;;;;;;;;;;410.30;2355.20;;;;;;5091346;28;19915;-60
2022/10/12 01:13:33;;;;;;;;;;;410.20;2355.20;;;;;;5091161;28;19908;-59
2022/10/12 01:16:02;;;;;;;;;;;410.20;2355.20;;;;;;5091230;28;19931;-59
2022/10/12 01:18:36;;;;;;;;;;;410.20;2355.20;;;;;;5091047;28;19916;-58
2022/10/12 01:21:16;;;;;;;;;;;410.20;2355.20;;;;;;5091023;28;20285;-58
2022/10/12 01:23:42;;;;;;;;;;;410.20;2355.20;;;;;;5090920;28;20300;-72
2022/10/12 01:26:18;;;;;;;;;;;410.20;2355.20;;;;;;5091150;28;19908;-66
2022/10/12 01:29:02;;;;;;;;;;;410.20;2355.20;;;;;;5091021;28;19915;-59
2022/10/12 01:31:33;;;;;;;;;;;410.20;2355.20;;;;;;5090897;28;20005;-73
2022/10/12 01:34:10;;;;;;;;;;;410.20;2355.20;;;;;;5090694;28;19913;-62
2022/10/12 01:36:38;;;;;;;;;;;410.30;2355.20;;;;;;5090747;28;19920;-58
2022/10/12 01:39:10;;;;;;;;;;;410.20;2355.20;;;;;;5090844;28;19917;-59
2022/10/12 01:41:38;;;;;;;;;;;410.20;2355.20;;;;;;5091029;28;19917;-60
2022/10/12 01:44:04;;;;;;;;;;;410.30;2355.20;;;;;;5090809;28;20007;-59
2022/10/12 01:46:30;;;;;;;;;;;410.30;2355.20;;;;;;5090651;28;20419;-59
2022/10/12 01:48:59;;;;;;;;;;;410.30;2355.20;;;;;;5090753;28;20358;-58
2022/10/12 01:51:31;;;;;;;;;;;410.30;2355.20;;;;;;5090634;28;19908;-58
2022/10/12 01:54:13;;;;;;;;;;;410.20;2355.20;;;;;;5090839;28;19909;-58
2022/10/12 01:56:44;;;;;;;;;;;410.20;2355.20;;;;;;5090842;28;20599;-58
2022/10/12 01:59:25;;;;;;;;;;;410.20;2355.20;;;;;;5089200;28;20318;-59
2022/10/12 02:01:54;;;;;;;;;;;410.20;2355.20;;;;;;5090449;28;19908;-64
2022/10/12 02:04:31;;;;;;;;;;;410.20;2355.20;;;;;;5090420;28;20314;-71
2022/10/12 02:07:00;;;;;;;;;;;410.20;2355.20;;;;;;5090374;28;19912;-60
2022/10/12 02:09:29;;;;;;;;;;;410.30;2355.20;;;;;;5090501;28;19916;-58
2022/10/12 02:11:57;;;;;;;;;;;410.20;2355.20;;;;;;5090479;28;19909;-59
2022/10/12 02:14:28;;;;;;;;;;;410.20;2355.20;;;;;;5090209;28;19920;-58
2022/10/12 02:16:57;;;;;;;;;;;410.20;2355.20;;;;;;5090495;28;19908;-58
2022/10/12 02:19:25;;;;;;;;;;;410.20;2355.20;;;;;;5090241;28;19920;-58
2022/10/12 02:21:52;;;;;;;;;;;410.20;2355.20;;;;;;5090370;28;19915;-59
2022/10/12 02:24:19;;;;;;;;;;;410.30;2355.20;;;;;;5090356;28;20019;-58
2022/10/12 02:26:46;;;;;;;;;;;410.30;2355.20;;;;;;5090295;28;20010;-58
2022/10/12 02:29:14;;;;;;;;;;;410.40;2355.20;;;;;;5090028;28;19916;-58
2022/10/12 02:31:51;;;;;;;;;;;410.30;2355.20;;;;;;5090179;28;19908;-59
2022/10/12 02:34:16;;;;;;;;;;;410.50;2355.20;;;;;;5090147;28;20397;-59
2022/10/12 02:36:42;;;;;;;;;;;410.50;2355.20;;;;;;5089953;28;19916;-59
2022/10/12 02:39:16;;;;;;;;;;;410.40;2355.20;;;;;;5090317;28;19923;-58
2022/10/12 02:41:46;;;;;;;;;;;410.50;2355.20;;;;;;5089872;28;19947;-59
2022/10/12 02:44:13;;;;;;;;;;;410.50;2355.20;;;;;;5090083;28;19916;-64
2022/10/12 02:46:40;;;;;;;;;;;410.40;2355.20;;;;;;5090206;28;19947;-59
2022/10/12 02:49:06;;;;;;;;;;;410.30;2355.20;;;;;;5092469;28;19930;-59
2022/10/12 02:51:32;;;;;;;;;;;410.30;2355.20;;;;;;5093693;28;19908;-59
2022/10/12 02:53:58;;;;;;;;;;;410.30;2355.20;;;;;;5093915;28;19908;-63
2022/10/12 02:56:24;;;;;;;;;;;410.50;2355.20;;;;;;5093653;28;20369;-58
2022/10/12 02:58:50;;;;;;;;;;;410.50;2355.20;;;;;;5093528;28;19912;-59
2022/10/12 03:01:15;;;;;;;;;;;410.40;2355.20;;;;;;5093738;28;19908;-58
2022/10/12 03:03:41;;;;;;;;;;;410.50;2355.20;;;;;;5093518;28;19912;-59
2022/10/12 03:06:07;;;;;;;;;;;410.30;2355.20;;;;;;5093827;28;19995;-58
2022/10/12 03:08:33;;;;;;;;;;;410.40;2355.20;;;;;;5093148;28;19920;-58
2022/10/12 03:11:02;;;;;;;;;;;410.50;2355.20;;;;;;5093458;28;19908;-58
2022/10/12 03:13:27;;;;;;;;;;;410.50;2355.20;;;;;;5093499;28;20373;-58
2022/10/12 03:15:53;;;;;;;;;;;410.50;2355.20;;;;;;5093493;28;19999;-58
2022/10/12 03:18:18;;;;;;;;;;;410.40;2355.20;;;;;;5093445;28;20357;-58
2022/10/12 03:20:47;;;;;;;;;;;410.50;2355.20;;;;;;5093218;28;19915;-59
2022/10/12 03:23:13;;;;;;;;;;;410.40;2355.20;;;;;;5093187;28;19919;-59
2022/10/12 03:25:38;;;;;;;;;;;410.40;2355.20;;;;;;5093276;28;19908;-62
2022/10/12 03:28:04;;;;;;;;;;;410.40;2355.20;;;;;;5093134;28;19908;-58
2022/10/12 03:30:29;;;;;;;;;;;410.40;2355.20;;;;;;5092995;28;20029;-59
2022/10/12 03:32:55;;;;;;;;;;;410.40;2355.20;;;;;;5092978;28;19908;-58
2022/10/12 03:35:20;;;;;;;;;;;410.30;2355.20;;;;;;5092972;28;19912;-59
2022/10/12 03:37:46;;;;;;;;;;;410.20;2355.20;;;;;;5092974;28;19916;-59
2022/10/12 03:40:12;;;;;;;;;;;410.10;2355.20;;;;;;5092664;28;20329;-58
2022/10/12 03:42:37;;;;;;;;;;;410.10;2355.20;;;;;;5093325;28;19908;-59
2022/10/12 03:45:03;;;;;;;;;;;410.10;2355.20;;;;;;5092834;28;20426;-58
2022/10/12 03:47:28;;;;;;;;;;;410.00;2355.20;;;;;;5092831;28;20312;-60
2022/10/12 03:49:54;;;;;;;;;;;410.00;2355.20;;;;;;5092622;28;19953;-61
2022/10/12 03:52:19;;;;;;;;;;;410.00;2355.20;;;;;;5092735;28;20295;-58
2022/10/12 03:54:45;;;;;;;;;;;409.90;2355.20;;;;;;5092715;28;20392;-58
2022/10/12 03:57:10;;;;;;;;;;;409.90;2355.20;;;;;;5092363;28;19908;-68
2022/10/12 03:59:36;;;;;;;;;;;409.90;2355.20;;;;;;5092677;28;19916;-58
2022/10/12 04:02:01;;;;;;;;;;;410.00;2355.20;;;;;;5092344;28;20006;-76
2022/10/12 04:04:27;;;;;;;;;;;410.00;2355.20;;;;;;5092557;28;19951;-58
2022/10/12 04:06:52;;;;;;;;;;;410.00;2355.20;;;;;;5092361;28;19912;-59
2022/10/12 04:09:18;;;;;;;;;;;410.00;2355.20;;;;;;5092351;28;19920;-59
2022/10/12 04:11:44;;;;;;;;;;;410.10;2355.20;;;;;;5092119;28;19915;-59
2022/10/12 04:14:09;;;;;;;;;;;410.20;2355.20;;;;;;5092404;28;19953;-77
2022/10/12 04:16:35;;;;;;;;;;;410.20;2355.20;;;;;;5092449;28;19993;-58
2022/10/12 04:19:00;;;;;;;;;;;410.20;2355.20;;;;;;5091868;28;19916;-65
2022/10/12 04:21:29;;;;;;;;;;;410.20;2355.20;;;;;;5092163;28;19908;-73
2022/10/12 04:23:54;;;;;;;;;;;410.20;2355.20;;;;;;5092256;28;20293;-58
2022/10/12 04:26:20;;;;;;;;;;;410.20;2355.20;;;;;;5091900;28;19915;-58
2022/10/12 04:28:46;;;;;;;;;;;410.20;2355.20;;;;;;5092076;28;19966;-79
2022/10/12 04:31:11;;;;;;;;;;;410.20;2355.20;;;;;;5091590;28;19915;-78
2022/10/12 04:33:37;;;;;;;;;;;410.20;2355.20;;;;;;5091809;28;19912;-66
2022/10/12 04:36:02;;;;;;;;;;;410.20;2355.20;;;;;;5091643;28;20016;-58
2022/10/12 04:38:28;;;;;;;;;;;410.20;2355.20;;;;;;5091715;28;19912;-75
2022/10/12 04:40:53;;;;;;;;;;;410.20;2355.20;;;;;;5091628;28;20013;-74
2022/10/12 04:43:19;;;;;;;;;;;410.20;2355.20;;;;;;5091774;28;20393;-59
2022/10/12 04:45:52;;;;;;;;;;;410.20;2355.20;;;;;;5091438;28;20015;-59
2022/10/12 04:48:17;;;;;;;;;;;410.20;2355.20;;;;;;5089331;28;19908;-71
2022/10/12 04:50:43;;;;;;;;;;;410.00;2355.20;;;;;;5090987;28;19961;-75
2022/10/12 04:53:08;;;;;;;;;;;410.10;2355.20;;;;;;5091246;28;19995;-73
2022/10/12 04:55:36;;;;;;;;;;;410.20;2355.20;;;;;;5091055;28;19950;-58
2022/10/12 04:58:01;;;;;;;;;;;410.20;2355.20;;;;;;5090869;28;19966;-60
2022/10/12 05:00:27;;;;;;;;;;;410.20;2355.20;;;;;;5090966;28;20416;-81
2022/10/12 05:02:52;;;;;;;;;;;410.20;2355.20;;;;;;5091183;28;20266;-59
2022/10/12 05:05:18;;;;;;;;;;;410.20;2355.20;;;;;;5090492;28;19916;-58
2022/10/12 05:07:43;;;;;;;;;;;410.20;2355.20;;;;;;5091118;28;20011;-59
2022/10/12 05:10:09;;;;;;;;;;;410.20;2355.20;;;;;;5091497;28;20385;-82
2022/10/12 05:12:34;;;;;;;;;;;410.20;2355.20;;;;;;5090454;28;19951;-58
2022/10/12 05:15:00;;;;;;;;;;;410.20;2355.20;;;;;;5090978;28;19909;-59
2022/10/12 05:17:25;;;;;;;;;;;410.30;2355.20;;;;;;5091490;28;19908;-58
2022/10/12 05:19:51;;;;;;;;;;;410.30;2355.20;;;;;;5090894;28;19917;-58
2022/10/12 05:22:16;;;;;;;;;;;410.30;2355.20;;;;;;5091200;28;19908;-58
2022/10/12 05:24:42;;;;;;;;;;;410.30;2355.20;;;;;;5091075;28;19951;-58
2022/10/12 05:27:07;;;;;;;;;;;410.30;2355.20;;;;;;5091102;28;19931;-58
2022/10/12 05:29:33;;;;;;;;;;;410.30;2355.20;;;;;;5090886;28;20274;-58
2022/10/12 05:31:59;;;;;;;;;;;410.30;2355.20;;;;;;5091250;28;20277;-73
2022/10/12 05:34:24;;;;;;;;;;;410.30;2355.20;;;;;;5090406;28;19912;-58
2022/10/12 05:36:50;;;;;;;;;;;410.30;2355.20;;;;;;5090681;28;19912;-59
2022/10/12 05:39:15;;;;;;;;;;;410.30;2355.20;;;;;;5090778;28;19923;-58
2022/10/12 05:41:41;;;;;;;;;;;410.30;2355.20;;;;;;5090548;28;20460;-83
2022/10/12 05:44:06;;;;;;;;;;;410.50;2355.20;;;;;;5090705;28;20388;-58
2022/10/12 05:46:32;;;;;;;;;;;410.50;2355.20;;;;;;5090422;28;19912;-58
2022/10/12 05:48:58;;;;;;;;;;;410.50;2355.20;;;;;;5090645;28;19912;-58
2022/10/12 05:51:23;;;;;;;;;;;410.40;2355.20;;;;;;5090677;28;19912;-58
2022/10/12 05:53:49;;;;;;;;;;;410.30;2355.20;;;;;;5090597;28;19908;-79
2022/10/12 05:56:14;;;;;;;;;;;410.30;2355.20;;;;;;5090466;28;19908;-58
2022/10/12 05:58:41;;;;;;;;;;;410.30;2355.20;;;;;;5090565;28;19912;-59
2022/10/12 06:01:07;;;;;;;;;;;410.30;2355.20;;;;;;5090642;28;19908;-58
2022/10/12 06:03:33;;;;;;;;;;;410.30;2355.20;;;;;;5090445;28;20312;-58
2022/10/12 06:05:59;;;;;;;;;;;410.50;2355.20;;;;;;5089212;28;19919;-76
2022/10/12 06:08:24;;;;;;;;;;;410.50;2355.20;;;;;;5090976;28;19927;-60
2022/10/12 06:10:51;;;;;;;;;;;410.50;2355.20;;;;;;5090232;28;20380;-61
2022/10/12 06:13:18;;;;;;;;;;;435.20;2355.20;;;;;;5090581;28;19931;-63
2022/10/12 06:15:44;;;;;;;;;;;435.30;2355.20;;;;;;5090131;28;19908;-61
2022/10/12 06:18:10;;;;;;;;;;;435.40;2355.20;;;;;;5090048;28;19912;-61
2022/10/12 06:20:36;;;;;;;;;;;435.40;2355.20;;;;;;5090241;28;19912;-61
2022/10/12 06:23:01;;;;;;;;;;;435.50;2355.20;;;;;;5090634;28;19912;-61
2022/10/12 06:25:27;;;;;;;;;;;435.50;2355.20;;;;;;5094362;28;19908;-60
2022/10/12 06:27:52;;;;;;;;;;;435.60;2355.20;;;;;;5094202;28;19912;-61
2022/10/12 06:30:18;;;;;;;;;;;435.70;2355.20;;;;;;5094296;28;19920;-61
2022/10/12 06:32:43;;;;;;;;;;;435.80;2355.20;;;;;;5093842;28;20004;-61
2022/10/12 06:35:09;;;;;;;;;;;435.80;2355.20;;;;;;5094465;28;19939;-62
2022/10/12 06:37:35;;;;;;;;;;;435.90;2355.20;;;;;;5094501;28;19916;-65
2022/10/12 06:40:00;;;;;;;;;;;435.90;2355.20;;;;;;5093854;28;19948;-61
2022/10/12 06:42:26;;;;;;;;;;;435.90;2355.20;;;;;;5094189;28;19908;-60
2022/10/12 06:44:51;;;;;;;;;;;435.90;2355.20;;;;;;5093987;28;19908;-61
2022/10/12 06:47:17;;;;;;;;;;;435.90;2355.20;;;;;;5094088;28;20396;-61
2022/10/12 06:49:42;;;;;;;;;;;435.90;2355.20;;;;;;5093697;28;19916;-62
2022/10/12 06:52:08;;;;;;;;;;;435.80;2355.20;;;;;;5094099;28;19908;-61
2022/10/12 06:54:33;;;;;;;;;;;435.90;2355.20;;;;;;5093649;28;19915;-61
2022/10/12 06:56:59;;;;;;;;;;;435.90;2355.20;;;;;;5093788;28;19912;-61
2022/10/12 06:59:24;;;;;;;;;;;436.10;2355.20;;;;;;5093658;28;19923;-60
2022/10/12 07:01:50;;;;;;;;;;;436.10;2355.20;;;;;;5093556;28;19908;-61
2022/10/12 07:04:16;;;;;;;;;;;436.10;2355.20;;;;;;5093704;28;19908;-61
2022/10/12 07:06:42;;;;;;;;;;;460.90;2380.80;;;;;;5093724;28;19923;-61
2022/10/12 07:09:08;;;;;;;;;;;460.80;2380.80;;;;;;5093760;28;19920;-61
2022/10/12 07:11:33;;;;;;;;;;;436.00;2355.20;;;;;;5093096;28;19954;-60
2022/10/12 07:13:59;;;;;;;;;;;435.90;2355.20;;;;;;5093218;28;19915;-61
2022/10/12 07:16:25;;;;;;;;;;;435.80;2355.20;;;;;;5093468;28;19908;-62
2022/10/12 07:18:50;;;;;;;;;;;435.70;2355.20;;;;;;5093069;28;19913;-61
2022/10/12 07:21:16;;;;;;;;;;;435.80;2355.20;;;;;;5093362;28;19955;-60
2022/10/12 07:23:42;;;;;;;;;;;435.90;2355.20;;;;;;5093174;28;20041;-62
2022/10/12 07:26:08;;;;;;;;;;;436.10;2355.20;;;;;;5093585;28;19915;-61
2022/10/12 07:28:34;;;;;;;;;;;436.00;2355.20;;;;;;5093028;28;20328;-61
2022/10/12 07:31:04;;;;;;;;;;;436.10;2355.20;;;;;;5092613;28;19978;-61
2022/10/12 07:33:31;;;;;;;;;;;436.00;2355.20;;;;;;5092270;28;19912;-61
2022/10/12 07:35:57;;;;;;;;;;;436.10;2355.20;;;;;;5092891;28;20366;-62
2022/10/12 07:38:22;;;;;;;;;;;436.10;2355.20;;;;;;5093063;28;19912;-63
2022/10/12 07:40:48;;;;;;;;;;;460.80;2380.80;;;;;;5093171;28;19960;-61
2022/10/12 07:43:13;;;;;;;;;;;461.00;2380.80;;;;;;5092881;28;19916;-61
2022/10/12 07:45:40;;;;;;;;;;;461.20;2380.80;;;;;;5092539;28;19912;-62
2022/10/12 07:48:05;;;;;;;;;;;461.20;2380.80;;;;;;5093549;28;19908;-61
2022/10/12 07:50:31;;;;;;;;;;;461.40;2380.80;;;;;;5092612;28;20251;-63
2022/10/12 07:52:56;;;;;;;;;;;461.70;2380.80;;;;;;5092781;28;19916;-60
2022/10/12 07:55:22;;;;;;;;;;;461.60;2380.80;;;;;;5092494;28;19912;-62
2022/10/12 07:57:48;;;;;;;;;;;486.60;2380.80;;;;;;5092634;28;20335;-63
2022/10/12 08:00:13;;;;;;;;;;;486.40;2380.80;;;;;;5091977;28;19946;-62
2022/10/12 08:02:39;;;;;;;;;;;486.70;2380.80;;;;;;5091340;28;19913;-60
2022/10/12 08:05:05;;;;;;;;;;;486.70;2380.80;;;;;;5091867;28;19916;-59
2022/10/12 08:07:31;;;;;;;;;;;486.40;2380.80;;;;;;5091746;28;19916;-62
2022/10/12 08:09:56;;;;;;;;;;;486.60;2380.80;;;;;;5092349;28;19913;-60
2022/10/12 08:12:22;;;;;;;;;;;486.70;2380.80;;;;;;5092327;28;19919;-63
2022/10/12 08:14:48;;;;;;;;;;;487.00;2380.80;;;;;;5092514;28;19915;-61
2022/10/12 08:17:13;;;;;;;;;;;487.20;2380.80;;;;;;5092105;28;19999;-62
2022/10/12 08:19:39;;;;;;;;;;;487.10;2380.80;;;;;;5092404;28;20736;-61
2022/10/12 08:22:04;;;;;;;;;;;512.30;2380.80;;;;;;5091918;28;20263;-61
2022/10/12 08:24:30;;;;;;;;;;;512.40;2380.80;;;;;;5091638;28;19912;-61
2022/10/12 08:26:56;;;;;;;;;;;512.00;2380.80;;;;;;5091699;28;19916;-60
2022/10/12 08:29:21;;;;;;;;;;;487.10;2380.80;;;;;;5091460;28;19962;-61
2022/10/12 08:31:49;;;;;;;;;;;512.00;2380.80;;;;;;5099713;28;19912;-61
2022/10/12 08:34:15;;;;;;;;;;;512.00;2380.80;;;;;;5089094;28;19916;-62
2022/10/12 08:36:40;;;;;;;;;;;512.10;2380.80;;;;;;5094271;28;19970;-62
2022/10/12 08:39:07;;;;;;;;;;;487.20;2380.80;;;;;;5094646;28;19920;-60
2022/10/12 08:41:32;;;;;;;;;;;487.10;2380.80;;;;;;5092313;28;19916;-60
2022/10/12 08:44:07;;;;;;;;;;;512.00;2380.80;;;;;;5100579;28;20392;-61
2022/10/12 08:46:33;;;;;;;;;;;487.10;2380.80;;;;;;5090042;28;19916;-60
2022/10/12 08:49:18;;;;;;;;;;;487.30;2380.80;;;;;;5090414;28;19965;-61
2022/10/12 08:51:55;;;;;;;;;;;486.90;2380.80;;;;;;5089485;28;19914;-61
2022/10/12 08:54:26;;;;;;;;;;;487.10;2380.80;;;;;;5090034;28;19909;-62
2022/10/12 08:56:52;;;;;;;;;;;487.20;2380.80;;;;;;5087946;28;19915;-61
2022/10/12 08:59:18;;;;;;;;;;;487.20;2380.80;;;;;;5090254;28;19922;-61
2022/10/12 09:01:51;;;;;;;;;;;487.20;2380.80;;;;;;5090956;28;19912;-60
2022/10/12 09:04:37;;;;;;;;;;;487.20;2380.80;;;;;;5088185;28;20358;-61
2022/10/12 09:07:15;;;;;;;;;;;487.30;2380.80;;;;;;5090911;28;19970;-61
2022/10/12 09:09:51;;;;;;;;;;;512.10;2380.80;;;;;;5091179;28;19922;-61
2022/10/12 09:12:16;;;;;;;;;;;512.10;2380.80;;;;;;5090997;28;19908;-61
2022/10/12 09:14:44;;;;;;;;;;;512.00;2380.80;;;;;;5091225;28;19961;-62
2022/10/12 09:17:19;;;;;;;;;;;512.30;2380.80;;;;;;5091259;28;19915;-63
2022/10/12 09:19:44;;;;;;;;;;;512.10;2380.80;;;;;;5091013;28;20407;-61
2022/10/12 09:22:17;;;;;;;;;;;512.10;2380.80;;;;;;5090940;28;19908;-61
2022/10/12 09:24:42;;;;;;;;;;;487.30;2380.80;;;;;;5090953;28;20262;-62
2022/10/12 09:27:18;;;;;;;;;;;487.00;2380.80;;;;;;5090805;28;20029;-62
2022/10/12 09:29:46;;;;;;;;;;;487.10;2380.80;;;;;;5090271;28;19912;-63
2022/10/12 09:32:11;;;;;;;;;;;486.80;2380.80;;;;;;5090879;28;19908;-61
2022/10/12 09:34:37;;;;;;;;;;;486.70;2380.80;;;;;;5090935;28;20018;-61
2022/10/12 09:37:03;;;;;;;;;;;486.80;2380.80;;;;;;5090764;28;19971;-61
2022/10/12 09:39:36;;;;;;;;;;;486.90;2380.80;;;;;;5090736;28;20362;-61
2022/10/12 09:42:02;;;;;;;;;;;486.90;2380.80;;;;;;5090545;28;20362;-61
2022/10/12 09:44:30;;;;;;;;;;;486.50;2380.80;;;;;;5090694;28;19916;-61
2022/10/12 09:46:58;;;;;;;;;;;486.50;2380.80;;;;;;5090806;28;19908;-61
2022/10/12 09:49:40;;;;;;;;;;;486.60;2380.80;;;;;;5090680;28;20274;-61
2022/10/12 09:52:06;;;;;;;;;;;486.90;2380.80;;;;;;5090833;28;19908;-61
2022/10/12 09:54:32;;;;;;;;;;;486.60;2380.80;;;;;;5090460;28;20284;-61
2022/10/12 09:56:57;;;;;;;;;;;486.40;2380.80;;;;;;5090515;28;19915;-61
2022/10/12 09:59:31;;;;;;;;;;;486.40;2380.80;;;;;;5090527;28;19916;-61
2022/10/12 10:01:57;;;;;;;;;;;486.70;2380.80;;;;;;5090529;28;19915;-61
2022/10/12 10:04:23;;;;;;;;;;;486.70;2380.80;;;;;;5090385;28;20026;-61
2022/10/12 10:06:49;;;;;;;;;;;486.40;2380.80;;;;;;5090628;28;19959;-61
2022/10/12 10:09:31;;;;;;;;;;;486.40;2380.80;;;;;;5090449;28;20366;-61
2022/10/12 10:12:09;;;;;;;;;;;486.40;2380.80;;;;;;5090282;28;19908;-61
2022/10/12 10:14:35;;;;;;;;;;;486.70;2380.80;;;;;;5090656;28;19908;-61
2022/10/12 10:17:01;;;;;;;;;;;486.60;2380.80;;;;;;5090229;28;19969;-61
2022/10/12 10:19:27;;;;;;;;;;;486.90;2380.80;;;;;;5090410;28;19916;-61
2022/10/12 10:21:53;;;;;;;;;;;486.80;2380.80;;;;;;5090168;28;20336;-61
2022/10/12 10:24:24;;;;;;;;;;;487.10;2380.80;;;;;;5090403;28;19962;-61
2022/10/12 10:26:50;;;;;;;;;;;487.30;2380.80;;;;;;5090294;28;19931;-61
2022/10/12 10:29:24;;;;;;;;;;;487.20;2380.80;;;;;;5090319;28;20377;-61
2022/10/12 10:32:10;;;;;;;;;;;487.20;2380.80;;;;;;5090073;28;19915;-61
2022/10/12 10:34:35;;;;;;;;;;;487.00;2380.80;;;;;;5090283;28;20381;-61
2022/10/12 10:37:03;;;;;;;;;;;512.00;2380.80;;;;;;5090045;28;19913;-61
2022/10/12 10:39:58;;;;;;;;;;;512.40;2380.80;;;;;;5090140;28;20003;-61
2022/10/12 10:42:27;;;;;;;;;;;512.00;2380.80;;;;;;5047445;28;19915;-62
2022/10/12 10:45:07;;;;;;;;;;;487.10;2380.80;;;;;;5047714;28;19923;-61
2022/10/12 10:47:40;;;;;;;;;;;487.30;2380.80;;;;;;5046751;28;19912;-61
2022/10/12 10:50:12;;;;;;;;;;;512.00;2380.80;;;;;;5045588;28;19916;-62
2022/10/12 10:52:39;;;;;;;;;;;512.30;2380.80;;;;;;5045812;28;19909;-61
2022/10/12 10:55:27;;;;;;;;;;;512.80;2380.80;;;;;;5045669;28;19909;-61
2022/10/12 10:58:01;;;;;;;;;;;512.70;2380.80;;;;;;5045432;28;19913;-61
2022/10/12 11:00:28;;;;;;;;;;;512.40;2380.80;;;;;;5045715;28;19920;-62
2022/10/12 11:03:00;;;;;;;;;;;512.40;2380.80;;;;;;5044998;28;19909;-61
2022/10/12 11:05:28;;;;;;;;;;;537.60;2406.40;;;;;;5045779;28;19952;-61
2022/10/12 11:08:26;;;;;;;;;;;537.70;2406.40;;;;;;5028489;28;20303;-61
2022/10/12 11:11:11;;;;;;;;;;;537.70;2406.40;;;;;;5009181;28;19914;-61
2022/10/12 11:13:55;;;;;;;;;;;512.80;2380.80;;;;;;5009614;28;19959;-61
2022/10/12 11:16:41;;;;;;;;;;;512.70;2380.80;;;;;;5009357;28;19910;-61
2022/10/12 11:19:09;;;;;;;;;;;537.80;2406.40;;;;;;5021757;28;19924;-61
2022/10/12 11:21:37;;;;;;;;;;;538.10;2406.40;;;;;;5029043;28;20271;-62
2022/10/12 11:24:17;;;;;;;;;;;538.10;2406.40;;;;;;5029053;28;20389;-62
2022/10/12 11:26:52;;;;;;;;;;;538.00;2406.40;;;;;;5028716;28;20314;-62
2022/10/12 11:29:17;;;;;;;;;;;537.70;2406.40;;;;;;5028968;28;19909;-61
2022/10/12 11:31:55;;;;;;;;;;;538.00;2406.40;;;;;;5028933;28;20008;-62
2022/10/12 11:34:22;;;;;;;;;;;538.10;2406.40;;;;;;5028634;28;19920;-61
2022/10/12 11:36:50;;;;;;;;;;;537.90;2406.40;;;;;;5029089;28;19936;-62
2022/10/12 11:39:22;;;;;;;;;;;537.90;2406.40;;;;;;5028801;28;19921;-61
2022/10/12 11:41:49;;;;;;;;;;;538.20;2406.40;;;;;;5028419;28;19925;-61
2022/10/12 11:44:24;;;;;;;;;;;538.00;2406.40;;;;;;5028662;28;19963;-61
2022/10/12 11:46:55;;;;;;;;;;;537.80;2406.40;;;;;;5069514;28;19908;-61
2022/10/12 11:49:32;;;;;;;;;;;538.30;2406.40;;;;;;5091112;28;19981;-62
2022/10/12 11:51:59;;;;;;;;;;;563.20;2432.00;;;;;;5091312;28;19913;-61
2022/10/12 11:54:45;;;;;;;;;;;563.30;2432.00;;;;;;5092618;28;19908;-63
2022/10/12 11:57:13;;;;;;;;;;;538.40;2406.40;;;;;;5092645;28;20358;-61
2022/10/12 11:59:52;;;;;;;;;;;538.40;2406.40;;;;;;5092701;28;19924;-61
2022/10/12 12:02:21;;;;;;;;;;;563.20;2432.00;;;;;;5092711;28;19916;-62
2022/10/12 12:04:47;;;;;;;;;;;538.50;2406.40;;;;;;5092369;28;19913;-63
2022/10/12 12:07:15;;;;;;;;;;;563.20;2432.00;;;;;;5092019;28;19997;-61
2022/10/12 12:09:42;;;;;;;;;;;563.60;2432.00;;;;;;5092299;28;19912;-62
2022/10/12 12:12:08;;;;;;;;;;;563.70;2432.00;;;;;;5092521;28;20365;-60
2022/10/12 12:14:33;;;;;;;;;;;563.80;2432.00;;;;;;5092074;28;19915;-60
2022/10/12 12:17:12;;;;;;;;;;;563.70;2432.00;;;;;;5092312;28;19919;-61
2022/10/12 12:19:40;;;;;;;;;;;563.80;2432.00;;;;;;5092337;28;20264;-60
2022/10/12 12:22:11;;;;;;;;;;;563.70;2432.00;;;;;;5091506;28;20277;-59
2022/10/12 12:24:37;;;;;;;;;;;563.80;2432.00;;;;;;5092003;28;19912;-63
2022/10/12 12:27:03;;;;;;;;;;;563.60;2432.00;;;;;;5091360;28;19916;-59
2022/10/12 12:29:29;;;;;;;;;;;563.60;2432.00;;;;;;5092144;28;20362;-61
2022/10/12 12:31:57;;;;;;;;;;;563.60;2432.00;;;;;;5091807;28;19908;-60
2022/10/12 12:34:24;;;;;;;;;;;563.70;2432.00;;;;;;5090158;28;19933;-60
2022/10/12 12:36:51;;;;;;;;;;;563.70;2432.00;;;;;;5090370;28;19957;-60
2022/10/12 12:39:19;;;;;;;;;;;563.60;2432.00;;;;;;5090256;28;19916;-59
2022/10/12 12:41:50;;;;;;;;;;;563.20;2432.00;;;;;;5090047;28;19912;-60
2022/10/12 12:44:36;;;;;;;;;;;563.40;2432.00;;;;;;5090312;28;19909;-60
2022/10/12 12:47:02;;;;;;;;;;;563.40;2432.00;;;;;;5089803;28;19912;-61
2022/10/12 12:49:37;;;;;;;;;;;563.40;2432.00;;;;;;5090159;28;19915;-60
2022/10/12 12:52:04;;;;;;;;;;;538.50;2406.40;;;;;;5088950;28;20289;-60
2022/10/12 12:54:30;;;;;;;;;;;563.20;2432.00;;;;;;5090037;28;20327;-60
2022/10/12 12:57:04;;;;;;;;;;;563.20;2432.00;;;;;;5089897;28;19912;-60
2022/10/12 12:59:45;;;;;;;;;;;563.20;2432.00;;;;;;5090121;28;20259;-60
2022/10/12 13:02:11;;;;;;;;;;;538.40;2406.40;;;;;;5089316;28;19912;-59
2022/10/12 13:04:45;;;;;;;;;;;538.20;2406.40;;;;;;5088395;28;19919;-62
2022/10/12 13:07:11;;;;;;;;;;;538.20;2406.40;;;;;;5086870;28;19916;-59
2022/10/12 13:09:55;;;;;;;;;;;538.00;2406.40;;;;;;5089155;28;20388;-60
2022/10/12 13:12:23;;;;;;;;;;;537.90;2406.40;;;;;;5069408;28;19908;-60
2022/10/12 13:14:49;;;;;;;;;;;537.80;2406.40;;;;;;5069159;28;19909;-60
2022/10/12 13:17:14;;;;;;;;;;;537.90;2406.40;;;;;;5069066;28;19995;-60
2022/10/12 13:19:41;;;;;;;;;;;537.60;2406.40;;;;;;5069286;28;20011;-60
2022/10/12 13:22:14;;;;;;;;;;;512.90;2380.80;;;;;;5069261;28;19909;-59
2022/10/12 13:24:49;;;;;;;;;;;512.90;2380.80;;;;;;5069571;28;19909;-60
2022/10/12 13:27:20;;;;;;;;;;;512.90;2380.80;;;;;;5068693;28;19912;-60
2022/10/12 13:30:07;;;;;;;;;;;512.90;2380.80;;;;;;5069069;28;19915;-60
2022/10/12 13:32:52;;;;;;;;;;;512.80;2380.80;;;;;;5068479;28;20366;-60
2022/10/12 13:35:25;;;;;;;;;;;512.70;2380.80;;;;;;5069233;28;19916;-60
2022/10/12 13:38:23;;;;;;;;;;;512.70;2380.80;;;;;;5068933;28;19912;-59
2022/10/12 13:41:04;;;;;;;;;;;512.70;2380.80;;;;;;5026032;28;19961;-60
2022/10/12 13:43:32;;;;;;;;;;;512.40;2380.80;;;;;;5026398;28;19937;-60
2022/10/12 13:45:58;;;;;;;;;;;512.50;2380.80;;;;;;5026539;28;19909;-61
2022/10/12 13:48:24;;;;;;;;;;;512.50;2380.80;;;;;;5026429;28;19909;-60